createdAt,value
2019-05-06T00:01:53.949Z,4.88
2019-05-06T00:04:24.504Z,4.86
2019-05-06T00:06:54.887Z,4.80
2019-05-06T00:09:24.036Z,4.77
2019-05-06T00:11:54.280Z,4.81
2019-05-06T00:14:23.593Z,4.69
2019-05-06T00:16:54.596Z,4.67
2019-05-06T00:19:24.707Z,4.53
2019-05-06T00:21:54.055Z,4.47
2019-05-06T00:24:24.889Z,4.55
2019-05-06T00:27:01.240Z,4.40
2019-05-06T00:29:30.361Z,4.40
2019-05-06T00:32:01.077Z,4.40
2019-05-06T00:34:29.946Z,4.33
2019-05-06T00:37:00.860Z,4.44
2019-05-06T00:39:44.413Z,4.44
2019-05-06T00:42:24.600Z,4.31
2019-05-06T00:44:53.745Z,4.16
2019-05-06T00:47:24.120Z,4.03
2019-05-06T00:49:54.627Z,4.03
2019-05-06T00:52:23.902Z,4.05
2019-05-06T00:54:54.674Z,3.99
2019-05-06T00:57:25.183Z,3.94
2019-05-06T00:59:54.001Z,3.91
2019-05-06T01:02:23.423Z,3.80
2019-05-06T01:04:54.170Z,3.88
2019-05-06T01:07:23.603Z,3.78
2019-05-06T01:09:54.154Z,3.80
2019-05-06T01:12:24.007Z,3.96
2019-05-06T01:14:54.619Z,3.86
2019-05-06T01:17:24.332Z,3.75
2019-05-06T01:19:54.116Z,3.89
2019-05-06T01:22:24.640Z,3.95
2019-05-06T01:24:55.692Z,4.14
2019-05-06T01:27:24.138Z,4.18
2019-05-06T01:29:54.430Z,4.14
2019-05-06T01:32:23.674Z,4.11
2019-05-06T01:34:53.681Z,4.38
2019-05-06T01:37:24.339Z,4.35
2019-05-06T01:40:10.247Z,4.47
2019-05-06T01:42:55.767Z,4.56
2019-05-06T01:45:24.374Z,4.52
2019-05-06T01:47:54.413Z,4.56
2019-05-06T01:50:23.630Z,4.71
2019-05-06T01:52:54.026Z,4.71
2019-05-06T01:55:23.906Z,4.79
2019-05-06T01:57:54.454Z,4.79
2019-05-06T02:00:23.814Z,4.87
2019-05-06T02:02:54.615Z,4.92
2019-05-06T02:05:24.231Z,5.05
2019-05-06T02:07:54.893Z,5.16
2019-05-06T02:10:23.865Z,5.32
2019-05-06T02:12:54.044Z,5.44
2019-05-06T02:15:23.959Z,5.39
2019-05-06T02:17:54.987Z,5.53
2019-05-06T02:20:24.665Z,5.64
2019-05-06T02:23:04.258Z,5.63
2019-05-06T02:25:35.058Z,5.63
2019-05-06T02:28:04.048Z,5.62
2019-05-06T02:30:37.057Z,5.56
2019-05-06T02:33:10.007Z,5.69
2019-05-06T02:35:45.284Z,5.64
2019-05-06T02:38:22.589Z,5.77
2019-05-06T02:40:53.541Z,5.82
2019-05-06T02:43:23.114Z,5.74
2019-05-06T02:45:53.060Z,5.75
2019-05-06T02:48:33.542Z,5.80
2019-05-06T02:51:06.717Z,5.80
2019-05-06T02:53:35.644Z,5.77
2019-05-06T02:56:04.707Z,5.77
2019-05-06T02:58:33.390Z,5.79
2019-05-06T03:01:04.034Z,5.79
2019-05-06T03:03:33.716Z,5.67
2019-05-06T03:06:03.948Z,5.57
2019-05-06T03:08:33.111Z,5.57
2019-05-06T03:11:03.898Z,5.28
2019-05-06T03:13:34.151Z,5.16
2019-05-06T03:16:05.680Z,4.99
2019-05-06T03:18:33.137Z,4.99
2019-05-06T03:21:04.067Z,4.85
2019-05-06T03:23:54.306Z,4.85
2019-05-06T03:26:23.570Z,4.85
2019-05-06T03:28:53.512Z,4.67
2019-05-06T03:31:26.089Z,4.57
2019-05-06T03:34:16.261Z,4.66
2019-05-06T03:36:27.358Z,4.55
2019-05-06T03:38:53.792Z,4.55
2019-05-06T03:41:23.393Z,4.49
2019-05-06T03:43:54.428Z,4.51
2019-05-06T03:46:33.790Z,4.39
2019-05-06T03:49:04.063Z,4.35
2019-05-06T03:51:34.214Z,4.43
2019-05-06T03:54:05.354Z,4.39
2019-05-06T03:56:34.426Z,4.28
2019-05-06T03:59:04.524Z,4.20
2019-05-06T04:01:33.795Z,4.23
2019-05-06T04:04:03.569Z,4.23
2019-05-06T04:06:33.416Z,4.16
2019-05-06T04:09:05.544Z,4.12
2019-05-06T04:11:36.427Z,3.99
2019-05-06T04:14:08.059Z,4.12
2019-05-06T04:16:44.020Z,4.13
2019-05-06T04:19:19.467Z,3.99
2019-05-06T04:21:52.838Z,3.90
2019-05-06T04:24:33.476Z,3.87
2019-05-06T04:27:33.549Z,3.96
2019-05-06T04:30:04.897Z,3.92
2019-05-06T04:32:34.210Z,3.90
2019-05-06T04:35:04.477Z,4.04
2019-05-06T04:37:34.045Z,3.97
2019-05-06T04:40:04.496Z,4.04
2019-05-06T04:42:34.496Z,4.01
2019-05-06T04:45:04.674Z,4.14
2019-05-06T04:47:33.622Z,4.11
2019-05-06T04:50:07.692Z,4.19
2019-05-06T04:52:36.573Z,4.18
2019-05-06T04:55:05.500Z,4.33
2019-05-06T04:57:34.356Z,4.30
2019-05-06T05:00:04.431Z,4.32
2019-05-06T05:02:33.797Z,4.56
2019-05-06T05:05:04.149Z,4.51
2019-05-06T05:07:33.535Z,4.61
2019-05-06T05:10:07.271Z,4.64
2019-05-06T05:12:43.678Z,4.72
2019-05-06T05:15:16.347Z,4.72
2019-05-06T05:17:49.498Z,4.88
2019-05-06T05:20:18.107Z,4.98
2019-05-06T05:22:46.922Z,5.07
2019-05-06T05:25:15.522Z,5.06
2019-05-06T05:27:44.812Z,5.00
2019-05-06T05:30:13.606Z,5.06
2019-05-06T05:32:42.806Z,5.16
2019-05-06T05:35:12.725Z,5.22
2019-05-06T05:37:42.057Z,5.30
2019-05-06T05:40:12.989Z,5.37
2019-05-06T05:42:43.703Z,5.41
2019-05-06T05:45:12.974Z,5.51
2019-05-06T05:47:42.538Z,5.51
2019-05-06T05:50:29.145Z,5.74
2019-05-06T05:52:57.959Z,6.02
2019-05-06T05:55:26.490Z,6.15
2019-05-06T05:57:55.121Z,6.15
2019-05-06T06:00:25.322Z,6.33
2019-05-06T06:02:53.948Z,6.33
2019-05-06T06:05:22.861Z,6.57
2019-05-06T06:07:53.016Z,6.61
2019-05-06T06:10:26.776Z,6.61
2019-05-06T06:12:55.756Z,6.87
2019-05-06T06:15:26.153Z,6.87
2019-05-06T06:18:12.947Z,7.14
2019-05-06T06:20:48.852Z,7.14
2019-05-06T06:23:23.105Z,7.22
2019-05-06T06:25:52.890Z,7.14
2019-05-06T06:28:22.801Z,7.29
2019-05-06T06:30:53.250Z,7.31
2019-05-06T06:33:22.418Z,7.31
2019-05-06T06:35:55.662Z,7.36
2019-05-06T06:38:32.344Z,7.48
2019-05-06T06:40:59.647Z,7.53
2019-05-06T06:43:28.252Z,7.75
2019-05-06T06:45:56.861Z,7.93
2019-05-06T06:48:27.867Z,8.00
2019-05-06T06:50:55.834Z,7.75
2019-05-06T06:53:24.587Z,7.95
2019-05-06T06:55:54.778Z,8.24
2019-05-06T06:58:32.362Z,8.30
2019-05-06T07:01:03.263Z,8.28
2019-05-06T07:03:37.965Z,8.13
2019-05-06T07:06:08.187Z,7.99
2019-05-06T07:08:37.819Z,8.05
2019-05-06T07:11:06.541Z,8.08
2019-05-06T07:13:35.132Z,8.20
2019-05-06T07:16:03.676Z,8.45
2019-05-06T07:18:35.348Z,8.61
2019-05-06T07:21:06.413Z,8.77
2019-05-06T07:23:36.635Z,8.74
2019-05-06T07:26:05.413Z,8.85
2019-05-06T07:28:34.597Z,8.92
2019-05-06T07:31:17.476Z,8.95
2019-05-06T07:33:33.805Z,9.17
2019-05-06T07:36:02.418Z,9.09
2019-05-06T07:38:32.532Z,9.21
2019-05-06T07:41:08.259Z,9.39
2019-05-06T07:43:42.075Z,9.85
2019-05-06T07:46:28.654Z,10.06
2019-05-06T07:48:57.213Z,9.72
2019-05-06T07:51:25.824Z,9.27
2019-05-06T07:53:54.844Z,9.27
2019-05-06T07:56:23.380Z,9.37
2019-05-06T07:58:53.601Z,9.48
2019-05-06T08:01:25.951Z,9.94
2019-05-06T08:03:53.274Z,10.36
2019-05-06T08:06:22.643Z,10.47
2019-05-06T08:08:53.621Z,10.22
2019-05-06T08:11:22.298Z,10.19
2019-05-06T08:13:52.797Z,10.51
2019-05-06T08:16:22.646Z,10.03
2019-05-06T08:18:52.632Z,10.26
2019-05-06T08:21:23.935Z,9.88
2019-05-06T08:23:53.329Z,9.90
2019-05-06T08:26:22.522Z,10.12
2019-05-06T08:28:52.712Z,10.02
2019-05-06T08:31:22.680Z,10.03
2019-05-06T08:33:52.337Z,10.24
2019-05-06T08:36:32.909Z,10.54
2019-05-06T08:39:06.125Z,10.76
2019-05-06T08:41:34.739Z,11.14
2019-05-06T08:44:03.264Z,11.02
2019-05-06T08:46:33.428Z,10.55
2019-05-06T08:49:03.663Z,10.34
2019-05-06T08:51:42.797Z,10.47
2019-05-06T08:54:13.429Z,10.98
2019-05-06T08:56:42.722Z,11.12
2019-05-06T08:59:11.347Z,11.41
2019-05-06T09:01:44.547Z,11.49
2019-05-06T09:04:16.170Z,10.86
2019-05-06T09:06:43.507Z,11.04
2019-05-06T09:09:13.087Z,10.76
2019-05-06T09:11:43.144Z,10.64
2019-05-06T09:14:13.619Z,10.34
2019-05-06T09:16:43.743Z,10.20
2019-05-06T09:19:13.037Z,10.07
2019-05-06T09:21:45.648Z,10.07
2019-05-06T09:24:12.777Z,10.10
2019-05-06T09:26:45.715Z,9.90
2019-05-06T09:29:24.626Z,10.32
2019-05-06T09:31:57.847Z,10.76
2019-05-06T09:34:43.307Z,10.91
2019-05-06T09:37:15.773Z,11.03
2019-05-06T09:39:45.529Z,10.77
2019-05-06T09:42:14.967Z,11.09
2019-05-06T09:44:44.937Z,10.98
2019-05-06T09:47:15.736Z,11.08
2019-05-06T09:49:44.363Z,10.93
2019-05-06T09:52:13.143Z,10.87
2019-05-06T09:54:49.409Z,10.77
2019-05-06T09:57:21.990Z,10.53
2019-05-06T09:59:52.600Z,10.73
2019-05-06T10:02:23.006Z,10.94
2019-05-06T10:04:52.218Z,11.08
2019-05-06T10:07:22.562Z,11.24
2019-05-06T10:09:52.688Z,11.18
2019-05-06T10:12:21.378Z,11.20
2019-05-06T10:14:50.080Z,10.93
2019-05-06T10:17:18.750Z,11.37
2019-05-06T10:19:47.459Z,11.62
2019-05-06T10:22:15.995Z,12.38
2019-05-06T10:24:44.986Z,13.10
2019-05-06T10:27:13.502Z,12.97
2019-05-06T10:29:43.736Z,12.40
2019-05-06T10:32:16.369Z,11.86
2019-05-06T10:34:44.913Z,11.55
2019-05-06T10:37:24.516Z,11.31
2019-05-06T10:40:14.437Z,11.13
2019-05-06T10:42:55.030Z,10.94
2019-05-06T10:45:28.889Z,11.01
2019-05-06T10:47:57.582Z,11.11
2019-05-06T10:50:28.037Z,11.40
2019-05-06T10:53:13.846Z,11.87
2019-05-06T10:55:44.307Z,12.74
2019-05-06T10:58:12.956Z,12.76
2019-05-06T11:00:42.489Z,13.51
2019-05-06T11:03:15.442Z,13.70
2019-05-06T11:05:44.618Z,13.84
2019-05-06T11:08:13.313Z,14.34
2019-05-06T11:10:45.137Z,14.51
2019-05-06T11:13:12.927Z,14.15
2019-05-06T11:15:43.378Z,13.15
2019-05-06T11:18:13.539Z,12.83
2019-05-06T11:20:43.722Z,12.38
2019-05-06T11:23:14.174Z,12.28
2019-05-06T11:25:43.379Z,12.13
2019-05-06T11:31:09.371Z,11.74
2019-05-06T11:33:42.327Z,12.01
2019-05-06T11:36:27.068Z,12.15
2019-05-06T11:38:55.605Z,12.38
2019-05-06T11:41:24.596Z,12.38
2019-05-06T11:43:53.420Z,12.17
2019-05-06T11:46:22.866Z,12.32
2019-05-06T11:48:52.236Z,12.59
2019-05-06T11:51:23.126Z,12.59
2019-05-06T11:53:53.858Z,13.26
2019-05-06T11:56:23.057Z,13.93
2019-05-06T11:58:53.591Z,14.54
2019-05-06T12:01:32.657Z,14.82
2019-05-06T12:04:02.459Z,14.68
2019-05-06T12:06:33.498Z,14.53
2019-05-06T12:09:07.853Z,14.06
2019-05-06T12:11:36.380Z,13.93
2019-05-06T12:14:05.443Z,13.73
2019-05-06T12:16:34.193Z,13.91
2019-05-06T12:19:02.962Z,14.65
2019-05-06T12:21:32.959Z,14.82
2019-05-06T12:24:02.943Z,15.43
2019-05-06T12:26:32.339Z,16.20
2019-05-06T12:29:02.137Z,15.52
2019-05-06T12:31:32.849Z,15.20
2019-05-06T12:34:02.922Z,14.71
2019-05-06T12:36:34.770Z,14.09
2019-05-06T12:39:19.246Z,14.04
2019-05-06T12:41:53.449Z,14.65
2019-05-06T12:44:23.094Z,14.06
2019-05-06T12:47:00.318Z,13.82
2019-05-06T12:49:32.536Z,13.72
2019-05-06T12:52:03.485Z,14.10
2019-05-06T12:54:35.027Z,13.69
2019-05-06T12:57:03.742Z,13.88
2019-05-06T12:59:32.755Z,14.26
2019-05-06T13:02:02.679Z,14.23
2019-05-06T13:04:50.172Z,13.98
2019-05-06T13:07:05.871Z,13.73
2019-05-06T13:09:34.451Z,13.84
2019-05-06T13:12:03.989Z,13.35
2019-05-06T13:14:33.243Z,13.39
2019-05-06T13:17:03.447Z,13.18
2019-05-06T13:19:33.510Z,13.18
2019-05-06T13:22:05.161Z,13.00
2019-05-06T13:24:33.690Z,12.88
2019-05-06T13:27:05.158Z,13.04
2019-05-06T13:29:35.526Z,12.90
2019-05-06T13:32:05.922Z,12.80
2019-05-06T13:34:34.744Z,12.91
2019-05-06T13:37:03.411Z,13.19
2019-05-06T13:39:33.715Z,13.76
2019-05-06T13:42:02.292Z,13.82
2019-05-06T13:44:32.074Z,14.08
2019-05-06T13:47:02.971Z,13.73
2019-05-06T13:49:39.805Z,13.10
2019-05-06T13:52:09.179Z,13.55
2019-05-06T13:54:37.778Z,13.48
2019-05-06T13:57:06.550Z,13.58
2019-05-06T13:59:36.916Z,13.60
2019-05-06T14:02:16.602Z,13.98
2019-05-06T14:04:45.224Z,14.05
2019-05-06T14:07:13.795Z,14.66
2019-05-06T14:09:43.684Z,15.14
2019-05-06T14:12:12.431Z,15.02
2019-05-06T14:14:43.132Z,14.88
2019-05-06T14:17:12.709Z,14.66
2019-05-06T14:19:42.850Z,14.46
2019-05-06T14:22:12.625Z,14.61
2019-05-06T14:24:43.215Z,14.59
2019-05-06T14:27:12.622Z,14.34
2019-05-06T14:29:57.712Z,13.62
2019-05-06T14:32:26.327Z,13.37
2019-05-06T14:34:54.927Z,13.67
2019-05-06T14:37:23.472Z,14.20
2019-05-06T14:39:59.482Z,14.82
2019-05-06T14:42:26.901Z,14.49
2019-05-06T14:44:55.436Z,14.34
2019-05-06T14:47:25.595Z,13.89
2019-05-06T14:49:55.114Z,14.06
2019-05-06T14:52:23.645Z,13.91
2019-05-06T14:54:53.842Z,14.96
2019-05-06T14:57:23.605Z,15.23
2019-05-06T14:59:55.453Z,14.63
2019-05-06T15:02:26.321Z,14.68
2019-05-06T15:04:54.518Z,15.09
2019-05-06T15:07:23.079Z,14.75
2019-05-06T15:10:02.585Z,14.96
2019-05-06T15:12:22.958Z,14.39
2019-05-06T15:14:52.780Z,14.35
2019-05-06T15:17:22.947Z,14.15
2019-05-06T15:19:52.590Z,14.10
2019-05-06T15:22:22.595Z,13.89
2019-05-06T15:24:53.648Z,14.08
2019-05-06T15:27:22.739Z,13.77
2019-05-06T15:29:54.071Z,14.64
2019-05-06T15:32:27.067Z,14.95
2019-05-06T15:34:57.349Z,14.64
2019-05-06T15:37:27.592Z,14.59
2019-05-06T15:39:56.508Z,14.53
2019-05-06T15:42:25.105Z,14.27
2019-05-06T15:44:53.986Z,13.89
2019-05-06T15:47:22.839Z,13.99
2019-05-06T15:49:52.681Z,13.63
2019-05-06T15:52:23.440Z,13.32
2019-05-06T15:54:52.595Z,13.14
2019-05-06T15:57:22.928Z,12.80
2019-05-06T15:59:52.898Z,12.55
2019-05-06T16:02:23.242Z,12.43
2019-05-06T16:04:52.156Z,12.33
2019-05-06T16:07:24.491Z,12.38
2019-05-06T16:09:54.930Z,12.54
2019-05-06T16:12:22.084Z,12.75
2019-05-06T16:14:53.129Z,12.64
2019-05-06T16:17:23.559Z,12.65
2019-05-06T16:19:51.396Z,12.40
2019-05-06T16:22:22.506Z,12.51
2019-05-06T16:25:08.709Z,12.22
2019-05-06T16:27:37.341Z,12.07
2019-05-06T16:30:09.171Z,11.93
2019-05-06T16:32:37.996Z,11.68
2019-05-06T16:35:07.364Z,11.69
2019-05-06T16:37:36.289Z,11.41
2019-05-06T16:40:06.764Z,11.35
2019-05-06T16:42:35.290Z,11.40
2019-05-06T16:45:06.742Z,11.34
2019-05-06T16:47:38.736Z,11.36
2019-05-06T16:50:13.233Z,11.25
2019-05-06T16:52:44.795Z,11.06
2019-05-06T16:55:14.596Z,10.85
2019-05-06T16:57:44.795Z,10.84
2019-05-06T17:00:15.710Z,10.70
2019-05-06T17:02:57.613Z,10.71
2019-05-06T17:05:23.584Z,10.75
2019-05-06T17:07:53.423Z,10.66
2019-05-06T17:10:22.746Z,10.70
2019-05-06T17:12:53.619Z,10.62
2019-05-06T17:15:23.049Z,10.63
2019-05-06T17:17:53.128Z,10.61
2019-05-06T17:20:22.788Z,10.51
2019-05-06T17:22:53.255Z,10.53
2019-05-06T17:25:22.453Z,10.62
2019-05-06T17:27:52.681Z,10.43
2019-05-06T17:30:23.095Z,10.43
2019-05-06T17:32:53.461Z,10.31
2019-05-06T17:35:23.214Z,10.25
2019-05-06T17:37:56.161Z,10.34
2019-05-06T17:40:24.928Z,10.22
2019-05-06T17:42:53.577Z,10.08
2019-05-06T17:45:40.330Z,10.05
2019-05-06T17:48:19.885Z,9.84
2019-05-06T17:51:06.334Z,9.77
2019-05-06T17:53:34.938Z,9.75
2019-05-06T17:56:04.306Z,9.54
2019-05-06T17:58:33.302Z,9.47
2019-05-06T18:01:03.657Z,9.35
2019-05-06T18:03:35.605Z,9.35
2019-05-06T18:06:06.994Z,9.22
2019-05-06T18:08:34.809Z,9.09
2019-05-06T18:11:03.418Z,9.12
2019-05-06T18:13:33.680Z,9.12
2019-05-06T18:16:05.158Z,9.13
2019-05-06T18:18:33.777Z,9.12
2019-05-06T18:21:02.657Z,9.05
2019-05-06T18:23:33.610Z,9.20
2019-05-06T18:26:03.136Z,9.16
2019-05-06T18:28:32.734Z,9.12
2019-05-06T18:31:04.352Z,9.11
2019-05-06T18:33:33.061Z,9.07
2019-05-06T18:36:02.547Z,9.12
2019-05-06T18:38:34.513Z,9.09
2019-05-06T18:41:03.529Z,9.14
2019-05-06T18:43:34.928Z,9.13
2019-05-06T18:46:03.559Z,9.11
2019-05-06T18:48:35.435Z,9.08
2019-05-06T18:51:04.570Z,9.13
2019-05-06T18:53:33.535Z,9.15
2019-05-06T18:56:05.324Z,9.22
2019-05-06T18:58:33.896Z,9.05
2019-05-06T19:01:03.995Z,8.98
2019-05-06T19:03:34.348Z,8.97
2019-05-06T19:06:03.421Z,8.97
2019-05-06T19:08:37.668Z,9.02
2019-05-06T19:11:08.224Z,8.91
2019-05-06T19:13:36.832Z,8.95
2019-05-06T19:16:05.747Z,9.01
2019-05-06T19:18:34.359Z,8.93
2019-05-06T19:21:02.972Z,8.89
2019-05-06T19:23:34.657Z,8.96
2019-05-06T19:26:03.281Z,9.00
2019-05-06T19:28:33.543Z,9.01
2019-05-06T19:31:05.636Z,8.83
2019-05-06T19:33:34.927Z,8.81
2019-05-06T19:36:03.574Z,8.85
2019-05-06T19:38:33.784Z,8.77
2019-05-06T19:41:05.727Z,8.70
2019-05-06T19:43:33.007Z,8.54
2019-05-06T19:46:02.593Z,8.54
2019-05-06T19:48:34.622Z,8.46
2019-05-06T19:51:03.235Z,8.48
2019-05-06T19:53:33.392Z,8.50
2019-05-06T19:56:03.245Z,8.45
2019-05-06T19:58:34.076Z,8.47
2019-05-06T20:01:04.168Z,8.41
2019-05-06T20:03:33.225Z,8.54
2019-05-06T20:08:56.716Z,8.37
2019-05-06T20:11:27.010Z,8.33
2019-05-06T20:13:55.795Z,8.39
2019-05-06T20:16:24.715Z,8.29
2019-05-06T20:18:53.340Z,8.21
2019-05-06T20:21:23.102Z,8.19
2019-05-06T20:23:52.594Z,8.13
2019-05-06T20:26:22.162Z,8.17
2019-05-06T20:28:52.622Z,8.13
2019-05-06T20:31:22.753Z,8.09
2019-05-06T20:33:52.932Z,8.13
2019-05-06T20:36:22.586Z,8.16
2019-05-06T20:38:51.601Z,8.13
2019-05-06T20:41:22.156Z,7.96
2019-05-06T20:43:50.494Z,7.98
2019-05-06T20:46:19.131Z,7.99
2019-05-06T20:48:48.079Z,7.90
2019-05-06T20:51:17.133Z,7.96
2019-05-06T20:53:46.206Z,7.82
2019-05-06T20:56:15.116Z,7.92
2019-05-06T20:58:44.062Z,7.74
2019-05-06T21:01:12.598Z,7.81
2019-05-06T21:03:42.455Z,7.79
2019-05-06T21:06:13.196Z,7.70
2019-05-06T21:08:42.148Z,7.68
2019-05-06T21:11:24.929Z,7.75
2019-05-06T21:13:43.272Z,7.70
2019-05-06T21:16:12.971Z,7.69
2019-05-06T21:18:42.731Z,7.71
2019-05-06T21:21:13.583Z,7.78
2019-05-06T21:23:42.836Z,7.72
2019-05-06T21:26:13.625Z,7.68
2019-05-06T21:28:46.274Z,7.67
2019-05-06T21:31:34.688Z,7.69
2019-05-06T21:34:24.461Z,7.65
2019-05-06T21:36:53.361Z,7.56
2019-05-06T21:39:23.268Z,7.56
2019-05-06T21:41:53.003Z,7.53
2019-05-06T21:44:22.955Z,7.54
2019-05-06T21:47:13.252Z,7.48
2019-05-06T21:49:43.129Z,7.48
2019-05-06T21:52:13.296Z,7.45
2019-05-06T21:54:43.423Z,7.52
2019-05-06T21:57:12.313Z,7.52
2019-05-06T21:59:42.753Z,7.40
2019-05-06T22:02:12.799Z,7.29
2019-05-06T22:04:43.321Z,7.21
2019-05-06T22:07:13.002Z,7.25
2019-05-06T22:09:43.026Z,7.14
2019-05-06T22:12:11.744Z,6.99
2019-05-06T22:14:42.243Z,6.96
2019-05-06T22:17:13.939Z,6.97
2019-05-06T22:19:42.855Z,6.88
2019-05-06T22:22:14.692Z,6.88
2019-05-06T22:24:45.876Z,6.83
2019-05-06T22:27:15.468Z,6.83
2019-05-06T22:29:44.483Z,6.77
2019-05-06T22:32:15.013Z,6.57
2019-05-06T22:34:43.428Z,6.51
2019-05-06T22:37:12.692Z,6.51
2019-05-06T22:39:43.614Z,6.46
2019-05-06T22:42:11.724Z,6.55
2019-05-06T22:44:42.707Z,6.55
2019-05-06T22:47:12.156Z,6.48
2019-05-06T22:49:40.912Z,6.45
2019-05-06T22:52:09.526Z,6.35
2019-05-06T22:54:38.135Z,6.40
2019-05-06T22:57:06.761Z,6.38
2019-05-06T22:59:35.370Z,6.26
2019-05-06T23:02:23.773Z,6.29
2019-05-06T23:04:54.021Z,6.35
2019-05-06T23:07:22.660Z,6.21
2019-05-06T23:09:52.150Z,6.20
2019-05-06T23:12:23.007Z,6.09
2019-05-06T23:14:52.848Z,6.10
2019-05-06T23:17:21.533Z,6.13
2019-05-06T23:19:50.253Z,6.23
2019-05-06T23:22:18.867Z,6.23
2019-05-06T23:24:47.480Z,6.25
2019-05-06T23:27:16.391Z,6.24
2019-05-06T23:29:45.138Z,6.12
2019-05-06T23:32:14.090Z,6.18
2019-05-06T23:34:43.535Z,6.18
2019-05-06T23:37:15.135Z,6.17
2019-05-06T23:40:22.201Z,6.10
2019-05-06T23:43:26.663Z,6.10
2019-05-06T23:46:32.455Z,6.15
2019-05-06T23:49:37.526Z,6.15
2019-05-06T23:52:42.714Z,6.19
2019-05-06T23:55:47.493Z,6.14
2019-05-06T23:58:14.890Z,6.15
